createdAt,value
2018-09-18T00:00:54.826Z,4.07
2018-09-18T00:03:23.433Z,3.90
2018-09-18T00:05:52.018Z,3.60
2018-09-18T00:08:20.600Z,3.50
2018-09-18T00:10:49.170Z,3.93
2018-09-18T00:13:17.765Z,4.70
2018-09-18T00:15:46.324Z,4.07
2018-09-18T00:18:14.941Z,4.77
2018-09-18T00:20:43.506Z,4.47
2018-09-18T00:23:12.124Z,4.07
2018-09-18T00:25:40.742Z,4.47
2018-09-18T00:28:09.939Z,4.50
2018-09-18T00:30:38.541Z,4.43
2018-09-18T00:33:07.204Z,4.00
2018-09-18T00:35:36.294Z,5.10
2018-09-18T00:38:04.876Z,4.17
2018-09-18T00:40:33.481Z,4.80
2018-09-18T00:43:02.054Z,4.00
2018-09-18T00:45:30.646Z,4.20
2018-09-18T00:47:59.246Z,4.50
2018-09-18T00:50:27.838Z,4.80
2018-09-18T00:52:56.410Z,4.47
2018-09-18T00:55:25.027Z,4.10
2018-09-18T00:57:53.594Z,4.00
2018-09-18T01:00:22.404Z,4.23
2018-09-18T01:02:50.990Z,3.83
2018-09-18T01:05:19.677Z,4.40
2018-09-18T01:07:48.313Z,5.70
2018-09-18T01:10:16.904Z,4.43
2018-09-18T01:12:45.469Z,5.07
2018-09-18T01:15:14.173Z,4.20
2018-09-18T01:17:42.733Z,5.00
2018-09-18T01:20:11.324Z,5.13
2018-09-18T01:22:39.880Z,4.70
2018-09-18T01:25:08.503Z,4.90
2018-09-18T01:27:37.074Z,4.77
2018-09-18T01:30:05.890Z,4.80
2018-09-18T01:32:34.468Z,4.27
2018-09-18T01:35:03.059Z,5.00
2018-09-18T01:37:31.622Z,5.53
2018-09-18T01:40:00.238Z,4.60
2018-09-18T01:42:28.823Z,4.37
2018-09-18T01:44:57.487Z,4.40
2018-09-18T01:47:26.093Z,4.80
2018-09-18T01:49:54.884Z,4.77
2018-09-18T01:52:23.468Z,5.10
2018-09-18T01:54:52.028Z,5.30
2018-09-18T01:57:20.648Z,4.47
2018-09-18T01:59:49.702Z,4.43
2018-09-18T02:02:18.288Z,4.43
2018-09-18T02:04:46.874Z,4.83
2018-09-18T02:07:15.468Z,5.57
2018-09-18T02:09:44.024Z,5.20
2018-09-18T02:12:12.625Z,4.83
2018-09-18T02:14:41.189Z,4.30
2018-09-18T02:17:09.785Z,4.83
2018-09-18T02:19:38.357Z,5.07
2018-09-18T02:22:07.125Z,4.67
2018-09-18T02:24:36.036Z,4.47
2018-09-18T02:27:04.805Z,5.00
2018-09-18T02:29:33.366Z,5.33
2018-09-18T02:32:01.971Z,5.47
2018-09-18T02:34:30.569Z,4.87
2018-09-18T02:36:59.166Z,4.60
2018-09-18T02:39:27.763Z,5.40
2018-09-18T02:41:56.344Z,5.37
2018-09-18T02:44:24.904Z,5.10
2018-09-18T02:46:53.544Z,4.80
2018-09-18T02:49:22.220Z,5.20
2018-09-18T02:51:50.817Z,4.63
2018-09-18T02:54:19.389Z,5.47
2018-09-18T02:56:47.989Z,4.60
2018-09-18T02:59:16.551Z,5.40
2018-09-18T03:01:45.161Z,4.30
2018-09-18T03:04:13.729Z,5.13
2018-09-18T03:06:42.312Z,4.73
2018-09-18T03:09:11.648Z,5.43
2018-09-18T03:11:40.230Z,5.00
2018-09-18T03:14:09.919Z,4.90
2018-09-18T03:16:38.534Z,4.27
2018-09-18T03:19:07.154Z,4.80
2018-09-18T03:21:35.888Z,4.70
2018-09-18T03:24:04.805Z,4.67
2018-09-18T03:26:33.622Z,4.17
2018-09-18T03:29:02.210Z,5.23
2018-09-18T03:31:30.777Z,4.17
2018-09-18T03:33:59.401Z,8.80
2018-09-18T03:36:27.974Z,9.60
2018-09-18T03:38:56.633Z,8.90
2018-09-18T03:41:25.280Z,10.70
2018-09-18T03:43:53.872Z,12.60
2018-09-18T03:46:22.502Z,14.90
2018-09-18T03:48:51.150Z,8.87
2018-09-18T03:51:19.717Z,6.53
2018-09-18T03:53:48.326Z,6.37
2018-09-18T03:56:16.907Z,7.13
2018-09-18T03:58:45.508Z,8.73
2018-09-18T04:01:14.087Z,8.43
2018-09-18T04:03:42.724Z,11.03
2018-09-18T04:06:12.127Z,39.00
2018-09-18T04:08:40.740Z,17.43
2018-09-18T04:11:09.348Z,16.50
2018-09-18T04:13:37.937Z,16.70
2018-09-18T04:16:06.528Z,11.20
2018-09-18T04:18:35.175Z,7.33
2018-09-18T04:21:03.745Z,8.37
2018-09-18T04:23:32.380Z,10.30
2018-09-18T04:26:00.941Z,6.83
2018-09-18T04:28:29.663Z,7.77
2018-09-18T04:30:58.234Z,5.90
2018-09-18T04:33:26.943Z,5.43
2018-09-18T04:35:55.542Z,6.10
2018-09-18T04:38:24.235Z,7.03
2018-09-18T04:40:52.825Z,5.83
2018-09-18T04:43:21.567Z,5.10
2018-09-18T04:45:50.152Z,5.43
2018-09-18T04:48:18.757Z,5.50
2018-09-18T04:50:47.421Z,5.47
2018-09-18T04:53:16.067Z,5.53
2018-09-18T04:55:44.641Z,5.23
2018-09-18T04:58:13.229Z,4.97
2018-09-18T05:00:41.790Z,5.50
2018-09-18T05:03:11.818Z,5.27
2018-09-18T05:05:40.384Z,5.77
2018-09-18T05:08:09.125Z,5.40
2018-09-18T05:10:37.732Z,5.33
2018-09-18T05:13:06.365Z,5.63
2018-09-18T05:15:34.969Z,4.97
2018-09-18T05:18:03.550Z,5.00
2018-09-18T05:20:32.206Z,4.87
2018-09-18T05:23:00.916Z,5.23
2018-09-18T05:25:29.556Z,5.37
2018-09-18T05:27:58.192Z,4.90
2018-09-18T05:30:26.797Z,5.80
2018-09-18T05:32:55.351Z,5.83
2018-09-18T05:35:23.971Z,5.37
2018-09-18T05:37:52.574Z,5.70
2018-09-18T05:40:21.417Z,5.47
2018-09-18T05:42:49.992Z,5.27
2018-09-18T05:45:18.580Z,7.83
2018-09-18T05:47:47.156Z,6.93
2018-09-18T05:50:15.757Z,6.40
2018-09-18T05:52:44.325Z,6.80
2018-09-18T05:55:13.529Z,9.73
2018-09-18T05:57:42.110Z,6.30
2018-09-18T06:00:10.930Z,7.20
2018-09-18T06:02:39.503Z,15.00
2018-09-18T06:05:08.342Z,17.37
2018-09-18T06:07:36.913Z,8.20
2018-09-18T06:10:05.962Z,7.87
2018-09-18T06:12:34.564Z,7.67
2018-09-18T06:15:03.175Z,6.00
2018-09-18T06:17:31.885Z,6.10
2018-09-18T06:20:00.475Z,8.60
2018-09-18T06:22:29.052Z,6.53
2018-09-18T06:24:57.640Z,6.23
2018-09-18T06:27:26.200Z,7.43
2018-09-18T06:29:54.789Z,5.70
2018-09-18T06:32:23.353Z,7.17
2018-09-18T06:34:51.941Z,7.50
2018-09-18T06:37:20.677Z,6.03
2018-09-18T06:39:49.290Z,5.47
2018-09-18T06:42:17.924Z,5.33
2018-09-18T06:44:47.398Z,5.10
2018-09-18T06:47:16.773Z,5.17
2018-09-18T06:49:46.424Z,4.70
2018-09-18T06:52:15.005Z,4.63
2018-09-18T06:54:43.592Z,6.40
2018-09-18T06:57:12.156Z,5.00
2018-09-18T06:59:40.909Z,7.13
2018-09-18T07:02:10.292Z,4.77
2018-09-18T07:04:38.899Z,5.90
2018-09-18T07:07:07.474Z,5.80
2018-09-18T07:09:36.034Z,5.53
2018-09-18T07:12:04.649Z,6.27
2018-09-18T07:14:33.220Z,7.30
2018-09-18T07:17:01.966Z,6.83
2018-09-18T07:19:31.002Z,5.80
2018-09-18T07:21:59.600Z,5.13
2018-09-18T07:24:28.171Z,6.60
2018-09-18T07:26:56.752Z,6.83
2018-09-18T07:29:25.381Z,5.10
2018-09-18T07:31:53.933Z,6.37
2018-09-18T07:34:22.506Z,4.97
2018-09-18T07:36:51.198Z,5.03
2018-09-18T07:39:19.793Z,6.03
2018-09-18T07:41:48.391Z,4.83
2018-09-18T07:44:16.972Z,6.23
2018-09-18T07:46:45.578Z,6.00
2018-09-18T07:49:14.142Z,7.10
2018-09-18T07:51:42.732Z,5.23
2018-09-18T07:54:11.334Z,6.73
2018-09-18T07:56:39.925Z,11.07
2018-09-18T07:59:08.507Z,11.17
2018-09-18T08:01:37.124Z,5.90
2018-09-18T08:04:05.694Z,3.90
2018-09-18T08:06:34.341Z,5.53
2018-09-18T08:09:02.997Z,6.27
2018-09-18T08:11:32.614Z,5.43
2018-09-18T08:14:01.308Z,5.20
2018-09-18T08:16:29.911Z,5.50
2018-09-18T08:18:58.590Z,4.90
2018-09-18T08:21:27.130Z,4.47
2018-09-18T08:23:55.696Z,5.20
2018-09-18T08:26:24.848Z,5.37
2018-09-18T08:28:53.441Z,4.90
2018-09-18T08:31:22.014Z,5.60
2018-09-18T08:33:50.600Z,4.90
2018-09-18T08:36:19.174Z,5.43
2018-09-18T08:38:47.806Z,5.00
2018-09-18T08:41:16.372Z,4.63
2018-09-18T08:43:44.957Z,5.27
2018-09-18T08:46:13.583Z,5.47
2018-09-18T08:48:47.427Z,4.47
2018-09-18T08:51:15.984Z,5.07
2018-09-18T08:53:44.592Z,5.60
2018-09-18T08:56:13.166Z,5.50
2018-09-18T08:58:41.898Z,4.47
2018-09-18T09:01:10.588Z,5.30
2018-09-18T09:03:39.192Z,4.30
2018-09-18T09:06:07.902Z,4.63
2018-09-18T09:08:36.703Z,4.53
2018-09-18T09:11:06.028Z,4.60
2018-09-18T09:13:34.922Z,4.53
2018-09-18T09:16:05.653Z,4.70
2018-09-18T09:18:35.418Z,4.40
2018-09-18T09:21:04.082Z,4.60
2018-09-18T09:23:32.810Z,4.43
2018-09-18T09:26:01.413Z,3.97
2018-09-18T09:28:30.134Z,4.70
2018-09-18T09:30:58.727Z,4.23
2018-09-18T09:33:27.348Z,5.00
2018-09-18T09:35:55.917Z,5.07
2018-09-18T09:38:24.582Z,4.33
2018-09-18T09:40:53.161Z,4.63
2018-09-18T09:43:21.808Z,3.77
2018-09-18T09:45:50.504Z,4.70
2018-09-18T09:48:19.115Z,5.27
2018-09-18T09:50:47.687Z,4.53
2018-09-18T09:53:17.321Z,4.53
2018-09-18T09:55:45.923Z,4.37
2018-09-18T09:58:14.613Z,5.23
2018-09-18T10:00:48.429Z,4.97
2018-09-18T10:03:17.013Z,4.07
2018-09-18T10:05:45.577Z,4.83
2018-09-18T10:08:14.173Z,4.70
2018-09-18T10:10:42.871Z,4.23
2018-09-18T10:13:11.407Z,5.00
2018-09-18T10:15:40.253Z,4.67
2018-09-18T10:18:09.378Z,4.60
2018-09-18T10:20:37.949Z,4.40
2018-09-18T10:23:06.630Z,5.27
2018-09-18T10:25:35.247Z,4.60
2018-09-18T10:28:03.916Z,4.60
2018-09-18T10:30:32.511Z,5.30
2018-09-18T10:33:01.104Z,4.60
2018-09-18T10:35:29.749Z,4.80
2018-09-18T10:37:58.320Z,4.70
2018-09-18T10:40:26.972Z,4.60
2018-09-18T10:42:55.664Z,4.33
2018-09-18T10:45:24.334Z,5.30
2018-09-18T10:47:53.034Z,4.87
2018-09-18T10:50:21.639Z,5.00
2018-09-18T10:52:50.215Z,4.87
2018-09-18T10:55:18.822Z,4.37
2018-09-18T10:57:47.410Z,5.57
2018-09-18T11:00:15.996Z,4.93
2018-09-18T11:02:44.587Z,5.30
2018-09-18T11:05:13.196Z,6.07
2018-09-18T11:07:41.780Z,5.30
2018-09-18T11:10:11.169Z,5.30
2018-09-18T11:12:39.842Z,5.30
2018-09-18T11:15:08.572Z,5.23
2018-09-18T11:17:37.155Z,5.33
2018-09-18T11:20:05.989Z,4.90
2018-09-18T11:22:34.575Z,4.70
2018-09-18T11:25:03.211Z,5.50
2018-09-18T11:27:31.794Z,5.77
2018-09-18T11:30:00.392Z,5.17
2018-09-18T11:32:28.995Z,5.87
2018-09-18T11:34:57.584Z,5.13
2018-09-18T11:37:26.163Z,5.67
2018-09-18T11:39:54.781Z,5.77
2018-09-18T11:42:23.538Z,5.37
2018-09-18T11:44:52.146Z,5.37
2018-09-18T11:47:20.715Z,5.10
2018-09-18T11:49:49.318Z,4.67
2018-09-18T11:52:17.887Z,4.90
2018-09-18T11:54:46.465Z,4.43
2018-09-18T11:57:15.221Z,3.80
2018-09-18T11:59:43.710Z,4.03
2018-09-18T12:02:12.958Z,4.10
2018-09-18T12:04:41.613Z,3.70
2018-09-18T12:07:10.163Z,4.40
2018-09-18T12:09:38.738Z,4.80
2018-09-18T12:12:07.406Z,4.43
2018-09-18T12:14:36.004Z,5.20
2018-09-18T12:17:04.673Z,4.97
2018-09-18T12:19:33.382Z,4.13
2018-09-18T12:22:01.986Z,5.07
2018-09-18T12:24:30.559Z,4.90
2018-09-18T12:26:59.197Z,5.50
2018-09-18T12:29:27.786Z,5.90
2018-09-18T12:31:56.474Z,5.10
2018-09-18T12:34:25.044Z,4.50
2018-09-18T12:36:53.635Z,5.10
2018-09-18T12:39:22.225Z,5.10
2018-09-18T12:41:50.866Z,4.53
2018-09-18T12:44:19.462Z,5.30
2018-09-18T12:46:48.073Z,5.33
2018-09-18T12:49:16.662Z,5.80
2018-09-18T12:51:45.369Z,4.30
2018-09-18T12:54:14.000Z,5.30
2018-09-18T12:56:42.604Z,4.63
2018-09-18T12:59:11.304Z,4.90
2018-09-18T13:01:39.862Z,4.20
2018-09-18T13:04:08.506Z,4.63
2018-09-18T13:06:37.259Z,5.40
2018-09-18T13:09:08.958Z,4.60
2018-09-18T13:11:37.682Z,6.00
2018-09-18T13:14:06.458Z,5.10
2018-09-18T13:16:35.066Z,4.80
2018-09-18T13:19:03.662Z,5.27
2018-09-18T13:21:32.274Z,5.07
2018-09-18T13:24:01.822Z,5.20
2018-09-18T13:26:30.409Z,5.53
2018-09-18T13:28:58.992Z,5.30
2018-09-18T13:31:27.604Z,4.83
2018-09-18T13:33:56.232Z,4.90
2018-09-18T13:36:24.872Z,4.80
2018-09-18T13:38:53.454Z,4.97
2018-09-18T13:41:23.839Z,5.20
2018-09-18T13:43:52.405Z,5.20
2018-09-18T13:46:21.026Z,5.37
2018-09-18T13:48:49.606Z,5.20
2018-09-18T13:51:18.212Z,4.93
2018-09-18T13:53:46.834Z,5.10
2018-09-18T13:56:15.504Z,5.07
2018-09-18T13:58:44.189Z,5.33
2018-09-18T14:01:12.802Z,5.40
2018-09-18T14:03:41.406Z,5.53
2018-09-18T14:06:10.979Z,4.80
2018-09-18T14:08:39.575Z,4.70
2018-09-18T14:11:08.162Z,6.03
2018-09-18T14:13:36.766Z,5.80
2018-09-18T14:16:05.389Z,5.73
2018-09-18T14:18:33.994Z,5.30
2018-09-18T14:21:02.565Z,5.67
2018-09-18T14:23:31.182Z,6.10
2018-09-18T14:25:59.761Z,6.00
2018-09-18T14:28:28.786Z,5.70
2018-09-18T14:30:57.374Z,6.10
2018-09-18T14:33:26.067Z,6.07
2018-09-18T14:35:54.657Z,6.27
2018-09-18T14:38:23.424Z,6.63
2018-09-18T14:40:51.978Z,5.03
2018-09-18T14:43:20.921Z,6.03
2018-09-18T14:45:49.494Z,6.00
2018-09-18T14:48:18.189Z,6.13
2018-09-18T14:50:46.767Z,6.20
2018-09-18T14:53:15.410Z,6.87
2018-09-18T14:55:44.020Z,7.13
2018-09-18T14:58:12.833Z,6.20
2018-09-18T15:00:41.424Z,6.60
2018-09-18T15:03:10.018Z,6.00
2018-09-18T15:05:38.601Z,6.37
2018-09-18T15:08:07.509Z,6.67
2018-09-18T15:10:36.093Z,6.30
2018-09-18T15:13:04.738Z,5.80
2018-09-18T15:15:33.596Z,5.70
2018-09-18T15:18:02.629Z,6.00
2018-09-18T15:20:31.194Z,6.20
2018-09-18T15:22:59.793Z,5.13
2018-09-18T15:25:28.387Z,5.27
2018-09-18T15:27:56.970Z,6.67
2018-09-18T15:30:25.569Z,5.63
2018-09-18T15:32:54.150Z,6.10
2018-09-18T15:35:22.757Z,5.20
2018-09-18T15:37:51.340Z,6.27
2018-09-18T15:40:20.819Z,5.60
2018-09-18T15:42:49.445Z,5.80
2018-09-18T15:45:18.042Z,6.27
2018-09-18T15:47:46.709Z,6.03
2018-09-18T15:50:15.325Z,7.07
2018-09-18T15:52:43.892Z,5.63
2018-09-18T15:55:12.537Z,5.43
2018-09-18T15:57:41.107Z,5.40
2018-09-18T16:00:10.608Z,5.77
2018-09-18T16:02:40.284Z,6.33
2018-09-18T16:05:08.896Z,5.87
2018-09-18T16:07:37.464Z,6.47
2018-09-18T16:10:06.109Z,6.53
2018-09-18T16:12:34.674Z,6.13
2018-09-18T16:15:03.413Z,6.03
2018-09-18T16:17:31.997Z,6.33
2018-09-18T16:20:00.616Z,5.93
2018-09-18T16:22:29.217Z,6.80
2018-09-18T16:24:58.853Z,5.53
2018-09-18T16:27:27.433Z,7.10
2018-09-18T16:29:56.022Z,6.10
2018-09-18T16:32:24.580Z,6.33
2018-09-18T16:34:53.177Z,5.70
2018-09-18T16:37:21.743Z,6.37
2018-09-18T16:39:50.956Z,6.57
2018-09-18T16:42:22.433Z,6.60
2018-09-18T16:44:51.057Z,6.20
2018-09-18T16:47:19.666Z,6.43
2018-09-18T16:49:48.274Z,6.00
2018-09-18T16:52:16.887Z,5.90
2018-09-18T16:54:45.547Z,5.23
2018-09-18T16:57:14.102Z,5.87
2018-09-18T16:59:43.300Z,7.13
2018-09-18T17:02:11.907Z,6.03
2018-09-18T17:04:40.521Z,6.37
2018-09-18T17:07:09.110Z,8.10
2018-09-18T17:09:37.707Z,6.33
2018-09-18T17:12:06.545Z,6.37
2018-09-18T17:14:35.128Z,6.03
2018-09-18T17:17:04.016Z,6.87
2018-09-18T17:19:32.644Z,6.07
2018-09-18T17:22:01.246Z,6.77
2018-09-18T17:24:29.891Z,6.87
2018-09-18T17:26:58.481Z,6.73
2018-09-18T17:29:27.088Z,7.27
2018-09-18T17:31:55.714Z,6.73
2018-09-18T17:34:24.351Z,6.73
2018-09-18T17:36:52.905Z,6.17
2018-09-18T17:39:21.538Z,5.77
2018-09-18T17:41:51.746Z,6.30
2018-09-18T17:44:20.399Z,6.77
2018-09-18T17:46:50.980Z,6.20
2018-09-18T17:49:19.604Z,6.63
2018-09-18T17:51:48.214Z,6.37
2018-09-18T17:54:16.927Z,7.90
2018-09-18T17:56:45.788Z,7.10
2018-09-18T17:59:14.386Z,7.00
2018-09-18T18:01:42.994Z,6.60
2018-09-18T18:04:11.598Z,6.57
2018-09-18T18:06:40.225Z,6.30
2018-09-18T18:09:09.704Z,6.43
2018-09-18T18:11:38.400Z,7.07
2018-09-18T18:14:07.022Z,6.40
2018-09-18T18:16:35.627Z,6.83
2018-09-18T18:19:05.044Z,7.17
2018-09-18T18:21:33.709Z,7.23
2018-09-18T18:24:02.323Z,6.30
2018-09-18T18:26:30.947Z,6.67
2018-09-18T18:28:59.519Z,6.57
2018-09-18T18:31:28.125Z,6.60
2018-09-18T18:33:56.721Z,6.73
2018-09-18T18:36:25.297Z,6.20
2018-09-18T18:38:53.991Z,6.53
2018-09-18T18:41:22.599Z,6.40
2018-09-18T18:43:51.208Z,7.00
2018-09-18T18:46:19.783Z,6.73
2018-09-18T18:48:48.414Z,7.67
2018-09-18T18:51:17.010Z,6.87
2018-09-18T18:53:45.659Z,7.50
2018-09-18T18:56:14.261Z,7.20
2018-09-18T18:58:42.864Z,6.90
2018-09-18T19:01:11.440Z,7.03
2018-09-18T19:03:40.065Z,6.70
2018-09-18T19:06:08.871Z,7.00
2018-09-18T19:08:37.472Z,7.67
2018-09-18T19:11:06.058Z,6.93
2018-09-18T19:13:34.673Z,7.17
2018-09-18T19:16:03.334Z,7.07
2018-09-18T19:18:31.938Z,7.47
2018-09-18T19:21:00.575Z,6.93
2018-09-18T19:23:29.245Z,7.60
2018-09-18T19:25:57.868Z,7.00
2018-09-18T19:28:26.448Z,7.87
2018-09-18T19:30:55.118Z,8.30
2018-09-18T19:33:23.960Z,8.90
2018-09-18T19:35:52.526Z,8.00
2018-09-18T19:38:21.134Z,7.70
2018-09-18T19:40:49.742Z,7.83
2018-09-18T19:43:18.395Z,7.73
2018-09-18T19:45:46.951Z,8.17
2018-09-18T19:48:15.526Z,8.00
2018-09-18T19:50:44.152Z,7.53
2018-09-18T19:53:12.742Z,8.40
2018-09-18T19:55:41.338Z,7.47
2018-09-18T19:58:10.065Z,8.23
2018-09-18T20:00:38.660Z,9.00
2018-09-18T20:03:07.261Z,7.40
2018-09-18T20:05:35.889Z,7.77
2018-09-18T20:08:04.458Z,7.83
2018-09-18T20:10:33.093Z,9.03
2018-09-18T20:13:01.757Z,8.37
2018-09-18T20:15:30.389Z,9.47
2018-09-18T20:17:58.957Z,9.00
2018-09-18T20:20:27.556Z,8.13
2018-09-18T20:22:56.132Z,8.00
2018-09-18T20:25:24.752Z,8.50
2018-09-18T20:27:53.352Z,9.00
2018-09-18T20:30:22.076Z,8.00
2018-09-18T20:32:50.658Z,9.23
2018-09-18T20:35:19.258Z,8.50
2018-09-18T20:37:47.849Z,8.27
2018-09-18T20:40:16.487Z,8.93
2018-09-18T20:42:45.072Z,9.47
2018-09-18T20:45:13.679Z,10.57
2018-09-18T20:47:42.233Z,8.30
2018-09-18T20:50:11.241Z,8.87
2018-09-18T20:52:39.809Z,8.37
2018-09-18T20:55:08.409Z,8.23
2018-09-18T20:57:36.977Z,9.27
2018-09-18T21:00:05.856Z,9.60
2018-09-18T21:02:34.462Z,9.27
2018-09-18T21:05:03.047Z,8.90
2018-09-18T21:07:31.662Z,8.13
2018-09-18T21:10:01.151Z,9.10
2018-09-18T21:12:29.767Z,8.27
2018-09-18T21:14:58.339Z,8.60
2018-09-18T21:17:26.941Z,9.10
2018-09-18T21:19:55.499Z,8.97
2018-09-18T21:22:24.090Z,8.97
2018-09-18T21:25:00.053Z,8.50
2018-09-18T21:27:28.663Z,8.20
2018-09-18T21:29:57.241Z,8.30
2018-09-18T21:32:25.916Z,9.00
2018-09-18T21:34:54.488Z,8.53
2018-09-18T21:37:23.079Z,8.37
2018-09-18T21:39:51.704Z,8.70
2018-09-18T21:42:20.346Z,7.50
2018-09-18T21:44:48.911Z,8.60
2018-09-18T21:47:17.644Z,8.50
2018-09-18T21:49:46.256Z,8.93
2018-09-18T21:52:14.847Z,7.40
2018-09-18T21:54:43.432Z,7.57
2018-09-18T21:57:12.025Z,7.60
2018-09-18T21:59:40.753Z,7.53
2018-09-18T22:02:09.497Z,7.40
2018-09-18T22:04:38.091Z,7.87
2018-09-18T22:07:06.773Z,7.00
2018-09-18T22:09:35.299Z,7.37
2018-09-18T22:12:03.897Z,6.80
2018-09-18T22:14:32.494Z,6.70
2018-09-18T22:17:01.094Z,6.50
2018-09-18T22:19:29.697Z,6.90
2018-09-18T22:21:58.322Z,6.90
2018-09-18T22:24:26.933Z,7.37
2018-09-18T22:26:55.540Z,6.03
2018-09-18T22:29:24.569Z,6.20
2018-09-18T22:31:53.176Z,7.23
2018-09-18T22:34:21.744Z,7.90
2018-09-18T22:36:50.415Z,5.57
2018-09-18T22:39:19.041Z,6.80
2018-09-18T22:41:47.604Z,6.03
2018-09-18T22:44:16.196Z,6.13
2018-09-18T22:46:44.769Z,6.07
2018-09-18T22:49:13.508Z,5.77
2018-09-18T22:51:42.113Z,6.07
2018-09-18T22:54:10.717Z,6.20
2018-09-18T22:56:39.293Z,6.90
2018-09-18T22:59:07.901Z,6.40
2018-09-18T23:01:36.494Z,5.73
2018-09-18T23:04:05.126Z,6.40
2018-09-18T23:06:33.711Z,6.00
2018-09-18T23:09:02.371Z,5.90
2018-09-18T23:11:30.943Z,6.27
2018-09-18T23:13:59.538Z,6.20
2018-09-18T23:16:28.139Z,6.70
2018-09-18T23:18:56.733Z,6.30
2018-09-18T23:21:25.327Z,5.80
2018-09-18T23:23:53.926Z,6.10
2018-09-18T23:26:22.490Z,5.90
2018-09-18T23:28:51.073Z,5.30
2018-09-18T23:31:19.649Z,5.63
2018-09-18T23:33:48.267Z,5.90
2018-09-18T23:36:16.854Z,6.10
2018-09-18T23:38:45.794Z,5.77
2018-09-18T23:41:14.450Z,5.83
2018-09-18T23:43:43.056Z,5.93
2018-09-18T23:46:12.539Z,5.60
2018-09-18T23:48:41.147Z,5.50
2018-09-18T23:51:09.740Z,5.13
2018-09-18T23:53:38.348Z,4.83
2018-09-18T23:56:07.146Z,4.60
2018-09-18T23:58:35.841Z,5.50
